Time;durP1;ratioP1;P1;durP2;ratioP2;P2;SDS_P1;SDS_P2;PMS_P1;PMS_P2;Temp;Humidity;BMP_temperature;BMP_pressure;BME280_temperature;BME280_humidity;BME280_pressure;Samples;Min_cycle;Max_cycle;Signal;HPM_P1;HPM_P2
2021/06/20 00:01:49;;;;;;;6.07;5.47;;;26.30;46.40;;;;;;5115178;28;20032;-70
2021/06/20 00:04:16;;;;;;;5.85;5.22;;;26.30;46.40;;;;;;5113948;28;20028;-70
2021/06/20 00:06:47;;;;;;;6.13;5.53;;;26.20;46.30;;;;;;5103902;28;20028;-70
2021/06/20 00:09:13;;;;;;;6.72;5.25;;;26.20;46.50;;;;;;5094749;28;20027;-70
2021/06/20 00:11:42;;;;;;;6.72;5.72;;;26.20;46.40;;;;;;5094672;28;20025;-70
2021/06/20 00:14:08;;;;;;;6.80;5.55;;;26.20;46.90;;;;;;5106994;28;20023;-70
2021/06/20 00:16:35;;;;;;;6.03;5.43;;;26.20;46.70;;;;;;5114969;28;20073;-70
2021/06/20 00:19:02;;;;;;;6.78;5.70;;;26.10;46.60;;;;;;5113660;28;20031;-69
2021/06/20 00:21:28;;;;;;;6.32;5.72;;;26.10;47.10;;;;;;5114769;28;20081;-70
2021/06/20 00:23:55;;;;;;;6.10;5.50;;;26.10;47.20;;;;;;5114808;28;20027;-70
2021/06/20 00:26:21;;;;;;;6.35;5.13;;;26.10;47.10;;;;;;5114832;28;20035;-69
2021/06/20 00:28:47;;;;;;;8.23;5.47;;;26.00;46.90;;;;;;5114701;28;20031;-70
2021/06/20 00:31:14;;;;;;;6.15;5.30;;;26.00;46.90;;;;;;5114662;28;20031;-70
2021/06/20 00:33:41;;;;;;;5.40;4.90;;;26.00;46.80;;;;;;5112945;28;20076;-69
2021/06/20 00:36:08;;;;;;;11.60;5.40;;;26.00;46.80;;;;;;5114575;28;20384;-69
2021/06/20 00:38:34;;;;;;;5.95;5.35;;;25.90;46.90;;;;;;5114560;28;20032;-70
2021/06/20 00:41:05;;;;;;;9.75;5.68;;;25.90;46.80;;;;;;5114427;28;20567;-71
2021/06/20 00:43:30;;;;;;;5.35;4.85;;;25.90;46.80;;;;;;5113109;28;20384;-70
2021/06/20 00:45:56;;;;;;;5.30;4.65;;;25.90;46.80;;;;;;5114399;28;20004;-69
2021/06/20 00:48:22;;;;;;;6.97;5.20;;;25.90;46.80;;;;;;5114356;28;20031;-71
2021/06/20 00:50:48;;;;;;;8.70;5.30;;;25.80;46.70;;;;;;5114093;28;20024;-70
2021/06/20 00:53:14;;;;;;;5.43;4.93;;;25.80;46.60;;;;;;5114254;28;20035;-69
2021/06/20 00:55:40;;;;;;;6.25;5.05;;;25.80;46.50;;;;;;5114144;28;20104;-70
2021/06/20 00:58:07;;;;;;;6.03;4.65;;;25.80;46.60;;;;;;5114160;28;20054;-69
2021/06/20 01:00:35;;;;;;;4.97;4.50;;;25.80;46.60;;;;;;5112686;28;20118;-69
2021/06/20 01:03:02;;;;;;;6.60;5.20;;;25.70;46.60;;;;;;5112187;28;20023;-69
2021/06/20 01:05:28;;;;;;;6.95;4.70;;;25.70;46.50;;;;;;5111230;28;20023;-69
2021/06/20 01:07:54;;;;;;;5.47;4.78;;;25.80;46.50;;;;;;5113795;28;20499;-70
2021/06/20 01:10:27;;;;;;;5.90;4.88;;;25.70;46.60;;;;;;5113879;28;20020;-70
2021/06/20 01:12:54;;;;;;;5.40;4.90;;;25.70;46.70;;;;;;5111074;28;20030;-70
2021/06/20 01:15:20;;;;;;;6.75;4.90;;;25.70;46.60;;;;;;5113808;28;20257;-69
2021/06/20 01:17:48;;;;;;;6.22;5.45;;;25.70;46.80;;;;;;5113738;28;20027;-71
2021/06/20 01:20:16;;;;;;;8.52;5.47;;;25.70;47.00;;;;;;5113158;28;20465;-70
2021/06/20 01:22:45;;;;;;;11.50;6.13;;;25.70;47.50;;;;;;5111908;28;20469;-70
2021/06/20 01:25:14;;;;;;;9.80;6.70;;;25.70;48.00;;;;;;5091955;28;20145;-69
2021/06/20 01:27:53;;;;;;;6.15;5.22;;;25.60;48.10;;;;;;5093371;28;20025;-70
2021/06/20 01:30:27;;;;;;;6.97;5.28;;;25.60;47.80;;;;;;5093258;28;20023;-70
2021/06/20 01:32:55;;;;;;;5.63;4.97;;;25.60;47.90;;;;;;5092208;28;20031;-70
2021/06/20 01:35:22;;;;;;;6.63;5.90;;;25.60;47.80;;;;;;5093094;28;20039;-70
2021/06/20 01:37:48;;;;;;;9.55;5.40;;;25.60;47.80;;;;;;5104300;28;20080;-70
2021/06/20 01:40:16;;;;;;;10.18;6.60;;;25.50;47.80;;;;;;5113346;28;20029;-69
2021/06/20 01:42:43;;;;;;;8.05;5.65;;;25.50;48.70;;;;;;5112063;28;20029;-69
2021/06/20 01:45:10;;;;;;;5.90;5.32;;;25.50;48.30;;;;;;5113250;28;20003;-72
2021/06/20 01:47:37;;;;;;;7.15;6.32;;;25.40;48.30;;;;;;5111925;28;20107;-69
2021/06/20 01:50:07;;;;;;;8.82;5.78;;;25.40;48.20;;;;;;5113202;28;20453;-70
2021/06/20 01:52:37;;;;;;;6.05;4.93;;;25.30;48.00;;;;;;5102645;28;20036;-70
2021/06/20 01:55:05;;;;;;;6.38;5.20;;;25.30;48.00;;;;;;5092893;28;20012;-70
2021/06/20 01:57:37;;;;;;;5.47;4.70;;;25.30;48.10;;;;;;5092874;28;20066;-70
2021/06/20 02:00:15;;;;;;;5.45;4.90;;;25.30;48.00;;;;;;5092691;28;20377;-70
2021/06/20 02:02:42;;;;;;;5.85;5.28;;;25.20;48.10;;;;;;5093436;28;20452;-70
2021/06/20 02:05:08;;;;;;;6.05;5.20;;;25.20;48.10;;;;;;5092747;28;20025;-71
2021/06/20 02:07:36;;;;;;;6.60;4.82;;;25.20;48.10;;;;;;5092659;28;20020;-69
2021/06/20 02:10:04;;;;;;;6.70;5.68;;;25.20;48.20;;;;;;5094366;28;20015;-70
2021/06/20 02:12:30;;;;;;;6.25;5.60;;;25.10;48.40;;;;;;5113076;28;20026;-70
2021/06/20 02:14:56;;;;;;;16.73;5.85;;;25.10;48.20;;;;;;5113070;28;20011;-69
2021/06/20 02:17:33;;;;;;;9.50;4.97;;;25.00;48.20;;;;;;5112994;28;20377;-70
2021/06/20 02:20:01;;;;;;;5.82;5.20;;;25.00;48.50;;;;;;5097793;28;20030;-69
2021/06/20 02:22:29;;;;;;;5.78;5.00;;;25.00;48.30;;;;;;5092693;28;20012;-70
2021/06/20 02:24:55;;;;;;;8.60;5.53;;;25.00;48.50;;;;;;5092574;28;20069;-69
2021/06/20 02:27:21;;;;;;;7.90;5.68;;;25.00;48.80;;;;;;5092539;28;20020;-69
2021/06/20 02:29:50;;;;;;;6.72;5.50;;;24.90;49.10;;;;;;5093271;28;20477;-70
2021/06/20 02:32:16;;;;;;;9.23;6.13;;;24.90;49.50;;;;;;5096550;28;20419;-70
2021/06/20 02:34:42;;;;;;;7.45;5.80;;;24.90;49.50;;;;;;5096794;28;20035;-70
2021/06/20 02:37:10;;;;;;;6.15;5.55;;;24.90;49.50;;;;;;5095054;28;20366;-69
2021/06/20 02:39:37;;;;;;;7.45;5.95;;;24.90;49.70;;;;;;5109726;28;20024;-70
2021/06/20 02:42:04;;;;;;;6.45;5.60;;;24.90;49.60;;;;;;5116770;28;20031;-70
2021/06/20 02:44:30;;;;;;;5.00;4.50;;;24.90;49.40;;;;;;5116663;28;20024;-71
2021/06/20 02:47:01;;;;;;;7.50;5.57;;;24.80;49.30;;;;;;5116822;28;20358;-69
2021/06/20 02:49:27;;;;;;;8.40;5.93;;;24.80;49.20;;;;;;5115346;28;20024;-69
2021/06/20 02:51:53;;;;;;;7.40;6.53;;;24.80;49.90;;;;;;5116434;28;20032;-69
2021/06/20 02:54:19;;;;;;;10.80;6.07;;;24.80;50.30;;;;;;5103787;28;20032;-70
2021/06/20 02:56:45;;;;;;;8.27;5.60;;;24.80;50.40;;;;;;5096169;28;20058;-70
2021/06/20 02:59:11;;;;;;;6.47;5.57;;;24.80;50.40;;;;;;5096043;28;20063;-70
2021/06/20 03:01:37;;;;;;;9.60;6.07;;;24.80;50.40;;;;;;5094652;28;20558;-70
2021/06/20 03:04:03;;;;;;;8.00;5.60;;;24.80;50.60;;;;;;5096417;28;20378;-69
2021/06/20 03:06:29;;;;;;;7.43;5.95;;;24.80;50.50;;;;;;5095919;28;20031;-70
2021/06/20 03:08:55;;;;;;;7.50;6.57;;;24.80;50.40;;;;;;5099990;28;20016;-69
2021/06/20 03:11:21;;;;;;;6.28;5.68;;;24.80;50.60;;;;;;5116265;28;20492;-69
2021/06/20 03:13:48;;;;;;;9.32;6.22;;;24.80;50.80;;;;;;5105953;28;20028;-70
2021/06/20 03:16:15;;;;;;;7.55;6.43;;;24.80;51.10;;;;;;5095718;28;20442;-70
2021/06/20 03:18:41;;;;;;;6.55;5.70;;;24.80;51.10;;;;;;5095571;28;20097;-70
2021/06/20 03:21:07;;;;;;;6.90;5.80;;;24.80;50.90;;;;;;5095372;28;20031;-69
2021/06/20 03:23:33;;;;;;;7.63;5.72;;;24.80;51.00;;;;;;5095488;28;20420;-70
2021/06/20 03:25:59;;;;;;;7.32;5.35;;;24.80;50.90;;;;;;5093985;28;20020;-70
2021/06/20 03:28:25;;;;;;;7.25;6.25;;;24.80;51.00;;;;;;5095372;28;20032;-70
2021/06/20 03:30:51;;;;;;;14.07;6.07;;;24.80;51.10;;;;;;5095212;28;20032;-69
2021/06/20 03:33:16;;;;;;;7.20;6.28;;;24.80;51.10;;;;;;5096423;28;20028;-69
2021/06/20 03:35:42;;;;;;;7.55;6.43;;;24.80;51.50;;;;;;5115615;28;20039;-70
2021/06/20 03:38:08;;;;;;;10.55;7.03;;;24.90;51.50;;;;;;5114234;28;20384;-71
2021/06/20 03:40:34;;;;;;;6.32;5.70;;;24.90;51.40;;;;;;5115532;28;20020;-70
2021/06/20 03:43:00;;;;;;;8.85;5.97;;;24.90;51.20;;;;;;5098820;28;20043;-70
2021/06/20 03:45:26;;;;;;;6.85;5.80;;;25.00;51.20;;;;;;5095070;28;20097;-70
2021/06/20 03:47:51;;;;;;;7.75;6.03;;;25.10;51.00;;;;;;5095092;28;20055;-70
2021/06/20 03:50:19;;;;;;;9.50;6.43;;;25.10;51.00;;;;;;5094978;28;20399;-70
2021/06/20 03:52:45;;;;;;;8.27;5.72;;;25.20;51.40;;;;;;5094797;28;20387;-70
2021/06/20 03:55:12;;;;;;;7.30;5.95;;;25.30;51.40;;;;;;5093653;28;20062;-70
2021/06/20 03:57:38;;;;;;;7.43;6.03;;;25.30;51.20;;;;;;5098487;28;20385;-70
2021/06/20 04:00:06;;;;;;;8.60;6.22;;;25.30;51.40;;;;;;5115147;28;20027;-70
2021/06/20 04:02:32;;;;;;;10.40;6.60;;;25.40;51.20;;;;;;5115155;28;20024;-69
2021/06/20 04:04:58;;;;;;;7.90;6.10;;;25.40;51.30;;;;;;5096156;28;20443;-70
2021/06/20 04:07:23;;;;;;;7.40;6.07;;;25.50;51.20;;;;;;5097574;28;20027;-70
2021/06/20 04:09:49;;;;;;;7.43;6.30;;;25.50;51.10;;;;;;5115027;28;20098;-70
2021/06/20 04:12:15;;;;;;;6.30;5.70;;;25.60;51.00;;;;;;5111781;28;20389;-70
2021/06/20 04:14:42;;;;;;;6.45;5.78;;;25.60;51.10;;;;;;5114839;28;20036;-71
2021/06/20 04:17:08;;;;;;;5.90;5.32;;;25.70;51.00;;;;;;5114909;28;20530;-70
2021/06/20 04:19:34;;;;;;;7.55;6.25;;;25.80;51.10;;;;;;5114914;27;20032;-69
2021/06/20 04:22:01;;;;;;;9.02;6.18;;;25.90;51.00;;;;;;5115044;28;20028;-69
2021/06/20 04:24:26;;;;;;;7.18;6.20;;;26.00;51.00;;;;;;5114768;28;20020;-70
2021/06/20 04:26:53;;;;;;;8.20;6.35;;;26.10;50.90;;;;;;5099660;28;20028;-70
2021/06/20 04:29:19;;;;;;;7.38;6.47;;;26.20;50.70;;;;;;5094407;28;20024;-69
2021/06/20 04:31:45;;;;;;;7.82;7.00;;;26.20;50.50;;;;;;5094290;28;20496;-70
2021/06/20 04:34:10;;;;;;;8.45;6.15;;;26.30;50.40;;;;;;5094477;28;20093;-70
2021/06/20 04:36:36;;;;;;;9.45;7.20;;;26.30;50.20;;;;;;5092703;28;20074;-70
2021/06/20 04:39:07;;;;;;;7.72;6.93;;;26.40;50.30;;;;;;5092656;28;20047;-71
2021/06/20 04:41:34;;;;;;;8.73;6.70;;;26.40;50.10;;;;;;5112353;28;20089;-70
2021/06/20 04:44:04;;;;;;;7.88;6.40;;;26.40;49.90;;;;;;5112981;28;20508;-70
2021/06/20 04:46:36;;;;;;;7.07;6.38;;;26.40;49.80;;;;;;5114239;28;20019;-70
2021/06/20 04:49:07;;;;;;;8.00;5.57;;;26.40;49.80;;;;;;5113766;28;20023;-70
2021/06/20 04:51:39;;;;;;;6.72;6.03;;;26.40;49.90;;;;;;5110339;28;20377;-71
2021/06/20 04:54:08;;;;;;;7.70;6.47;;;26.40;49.90;;;;;;5111837;28;20028;-70
2021/06/20 04:56:34;;;;;;;6.70;6.10;;;26.40;49.80;;;;;;5098041;28;20023;-71
2021/06/20 04:59:00;;;;;;;9.23;6.88;;;26.50;49.70;;;;;;5092638;28;20485;-70
2021/06/20 05:01:26;;;;;;;8.13;7.30;;;26.50;49.50;;;;;;5091827;28;20036;-70
2021/06/20 05:03:53;;;;;;;8.13;7.18;;;26.50;49.30;;;;;;5093779;28;20582;-69
2021/06/20 05:06:19;;;;;;;8.20;7.40;;;26.50;49.10;;;;;;5101697;28;20480;-70
2021/06/20 05:08:45;;;;;;;12.35;6.82;;;26.60;48.80;;;;;;5113801;28;20035;-70
2021/06/20 05:11:11;;;;;;;8.90;7.03;;;26.60;48.70;;;;;;5110539;28;20583;-70
2021/06/20 05:13:37;;;;;;;8.05;6.85;;;26.60;48.60;;;;;;5099770;28;20032;-70
2021/06/20 05:16:03;;;;;;;7.97;6.20;;;26.70;48.50;;;;;;5112506;28;20022;-70
2021/06/20 05:18:30;;;;;;;7.40;5.95;;;26.80;48.50;;;;;;5111204;28;20536;-70
2021/06/20 05:20:55;;;;;;;7.20;6.30;;;26.80;48.20;;;;;;5112373;28;20106;-70
2021/06/20 05:23:21;;;;;;;6.38;5.78;;;27.00;48.30;;;;;;5112367;28;20094;-70
2021/06/20 05:25:48;;;;;;;8.10;6.78;;;27.00;48.30;;;;;;5112339;28;20465;-70
2021/06/20 05:28:14;;;;;;;7.53;6.57;;;27.10;48.20;;;;;;5097964;28;20393;-70
2021/06/20 05:30:44;;;;;;;7.47;6.22;;;27.30;48.30;;;;;;5112228;28;20020;-70
2021/06/20 05:33:11;;;;;;;10.85;7.57;;;27.40;48.20;;;;;;5110872;27;20031;-71
2021/06/20 05:35:36;;;;;;;15.50;10.38;;;27.50;48.10;;;;;;5111816;28;20019;-70
2021/06/20 05:38:02;;;;;;;15.82;9.77;;;27.60;47.90;;;;;;5111633;28;20366;-70
2021/06/20 05:40:28;;;;;;;12.30;9.23;;;27.70;47.80;;;;;;5109530;28;20043;-70
2021/06/20 05:42:54;;;;;;;13.18;9.02;;;27.80;47.80;;;;;;5111040;28;20016;-70
2021/06/20 05:45:19;;;;;;;13.15;9.10;;;27.90;47.70;;;;;;5107526;28;20449;-70
2021/06/20 05:47:45;;;;;;;13.35;10.07;;;28.00;47.60;;;;;;5111595;28;20015;-70
2021/06/20 05:50:11;;;;;;;13.65;9.15;;;28.10;47.30;;;;;;5111938;28;20030;-70
2021/06/20 05:52:37;;;;;;;11.85;9.15;;;28.20;47.20;;;;;;5111862;28;20165;-70
2021/06/20 05:55:05;;;;;;;12.32;8.90;;;28.30;47.10;;;;;;5112157;28;20485;-70
2021/06/20 05:57:31;;;;;;;15.38;9.30;;;28.40;47.00;;;;;;5111450;28;20051;-70
2021/06/20 05:59:57;;;;;;;16.23;10.30;;;28.50;46.90;;;;;;5108584;28;20484;-70
2021/06/20 06:02:22;;;;;;;20.65;10.63;;;28.50;46.60;;;;;;5092815;28;20059;-70
2021/06/20 06:04:48;;;;;;;13.60;9.23;;;28.70;46.50;;;;;;5112386;28;20030;-70
2021/06/20 06:07:14;;;;;;;11.40;8.50;;;28.70;46.60;;;;;;5104125;28;20035;-70
2021/06/20 06:09:40;;;;;;;13.57;9.60;;;28.80;46.30;;;;;;5099344;28;20032;-71
2021/06/20 06:12:06;;;;;;;15.27;8.60;;;28.90;46.20;;;;;;5098199;28;20024;-71
2021/06/20 06:14:33;;;;;;;14.63;9.40;;;29.00;46.00;;;;;;5099188;28;20035;-71
2021/06/20 06:16:58;;;;;;;19.63;9.68;;;29.10;46.00;;;;;;5099420;28;20032;-70
2021/06/20 06:19:24;;;;;;;13.30;9.30;;;29.20;45.60;;;;;;5099528;28;20031;-70
2021/06/20 06:21:50;;;;;;;12.05;9.00;;;29.30;45.60;;;;;;5099264;28;20028;-70
2021/06/20 06:24:16;;;;;;;15.18;9.63;;;29.40;45.60;;;;;;5099401;28;20496;-71
2021/06/20 06:26:42;;;;;;;13.43;10.32;;;29.50;45.30;;;;;;5099363;28;20028;-70
2021/06/20 06:29:08;;;;;;;13.95;9.93;;;29.60;44.90;;;;;;5099126;28;20024;-70
2021/06/20 06:31:36;;;;;;;17.20;10.60;;;29.70;44.80;;;;;;5099236;28;20099;-71
2021/06/20 06:34:03;;;;;;;19.88;9.60;;;29.70;44.40;;;;;;5099571;28;20496;-70
2021/06/20 06:36:29;;;;;;;15.13;10.23;;;29.70;44.40;;;;;;5116077;27;20020;-70
2021/06/20 06:38:55;;;;;;;17.27;10.13;;;29.70;44.30;;;;;;5119633;28;20035;-70
2021/06/20 06:41:20;;;;;;;17.92;10.45;;;29.80;44.30;;;;;;5110513;28;20074;-70
2021/06/20 06:43:46;;;;;;;17.40;10.80;;;29.80;44.10;;;;;;5099020;28;20036;-70
2021/06/20 06:46:12;;;;;;;13.73;10.10;;;29.80;44.00;;;;;;5107124;28;20027;-71
2021/06/20 06:48:38;;;;;;;13.27;9.85;;;29.80;44.10;;;;;;5119457;28;20022;-70
2021/06/20 06:51:05;;;;;;;13.30;9.50;;;29.90;44.10;;;;;;5118895;27;20027;-70
2021/06/20 06:53:30;;;;;;;12.00;8.85;;;29.90;43.70;;;;;;5119527;28;20034;-70
2021/06/20 06:55:57;;;;;;;14.43;10.32;;;29.90;43.80;;;;;;5119488;28;20031;-70
2021/06/20 06:58:23;;;;;;;15.55;9.85;;;30.00;43.30;;;;;;5110989;28;20076;-70
2021/06/20 07:00:49;;;;;;;13.32;10.40;;;30.10;42.60;;;;;;5099016;28;20051;-70
2021/06/20 07:03:15;;;;;;;10.82;8.90;;;30.10;42.80;;;;;;5102760;28;20015;-71
2021/06/20 07:05:41;;;;;;;12.63;11.20;;;30.20;43.00;;;;;;5116281;28;20369;-70
2021/06/20 07:08:07;;;;;;;10.18;9.05;;;30.20;42.60;;;;;;5118901;28;20389;-69
2021/06/20 07:10:34;;;;;;;11.32;9.88;;;30.40;42.80;;;;;;5102252;28;20024;-70
2021/06/20 07:13:00;;;;;;;12.07;9.52;;;30.50;42.60;;;;;;5099178;28;20024;-71
2021/06/20 07:15:26;;;;;;;11.73;10.10;;;30.50;42.20;;;;;;5119196;27;20487;-70
2021/06/20 07:17:52;;;;;;;9.23;8.05;;;30.60;41.80;;;;;;5114838;28;20525;-71
2021/06/20 07:20:19;;;;;;;12.05;9.40;;;30.70;42.00;;;;;;5108116;28;20111;-71
2021/06/20 07:22:47;;;;;;;13.75;10.63;;;30.80;41.80;;;;;;5095585;28;20031;-70
2021/06/20 07:25:18;;;;;;;14.52;11.40;;;30.90;41.20;;;;;;5095548;28;20027;-70
2021/06/20 07:27:45;;;;;;;12.77;10.93;;;31.00;41.00;;;;;;5095392;28;20020;-71
2021/06/20 07:30:16;;;;;;;12.85;10.27;;;31.00;40.70;;;;;;5097737;28;20115;-70
2021/06/20 07:32:43;;;;;;;14.63;11.68;;;31.10;41.00;;;;;;5095512;28;20016;-70
2021/06/20 07:35:09;;;;;;;17.08;9.40;;;31.20;40.50;;;;;;5095459;28;20419;-70
2021/06/20 07:37:36;;;;;;;10.50;8.20;;;31.30;40.10;;;;;;5095206;28;20024;-70
2021/06/20 07:40:04;;;;;;;15.95;8.90;;;31.40;40.20;;;;;;5095338;28;20028;-71
2021/06/20 07:42:30;;;;;;;9.27;8.27;;;31.50;40.10;;;;;;5095098;28;20028;-70
2021/06/20 07:44:56;;;;;;;8.73;7.80;;;31.50;39.90;;;;;;5094990;28;20077;-71
2021/06/20 07:47:22;;;;;;;8.52;7.60;;;31.60;39.50;;;;;;5112564;28;20027;-71
2021/06/20 07:49:47;;;;;;;10.38;8.40;;;31.60;39.40;;;;;;5103395;28;20456;-70
2021/06/20 07:52:13;;;;;;;8.85;7.95;;;31.70;39.40;;;;;;5115099;28;20500;-71
2021/06/20 07:54:42;;;;;;;8.73;6.90;;;31.80;39.20;;;;;;5110419;28;20035;-71
2021/06/20 07:57:08;;;;;;;9.82;7.78;;;31.90;39.40;;;;;;5102979;28;20028;-71
2021/06/20 07:59:34;;;;;;;12.82;8.25;;;31.90;39.00;;;;;;5093364;28;20105;-70
2021/06/20 08:02:00;;;;;;;13.27;7.75;;;32.10;38.80;;;;;;5108819;28;20501;-70
2021/06/20 08:04:26;;;;;;;13.95;7.55;;;32.20;38.90;;;;;;5093354;28;20469;-71
2021/06/20 08:06:51;;;;;;;10.55;8.15;;;32.30;38.50;;;;;;5106423;28;20048;-70
2021/06/20 08:09:18;;;;;;;10.32;7.25;;;32.30;38.60;;;;;;5114806;28;20472;-70
2021/06/20 08:11:44;;;;;;;13.45;9.02;;;32.40;38.20;;;;;;5114840;28;20020;-70
2021/06/20 08:14:10;;;;;;;16.85;8.50;;;32.50;37.60;;;;;;5114797;28;20028;-70
2021/06/20 08:16:35;;;;;;;13.20;8.30;;;32.60;37.50;;;;;;5114223;28;20127;-71
2021/06/20 08:19:01;;;;;;;10.23;7.75;;;32.70;37.20;;;;;;5114293;28;20515;-71
2021/06/20 08:21:27;;;;;;;12.40;8.35;;;32.70;36.90;;;;;;5114645;28;20019;-70
2021/06/20 08:23:53;;;;;;;9.93;7.80;;;32.70;37.10;;;;;;5114859;28;20469;-70
2021/06/20 08:26:19;;;;;;;11.30;7.43;;;32.80;37.20;;;;;;5114055;28;20011;-71
2021/06/20 08:28:45;;;;;;;12.15;9.13;;;32.80;37.30;;;;;;5113965;27;20380;-70
2021/06/20 08:31:11;;;;;;;12.90;8.35;;;32.80;37.20;;;;;;5112437;28;20023;-70
2021/06/20 08:33:37;;;;;;;12.70;8.77;;;32.90;37.10;;;;;;5105960;28;20017;-70
2021/06/20 08:36:03;;;;;;;11.45;7.38;;;32.90;36.30;;;;;;5110698;28;20491;-70
2021/06/20 08:38:29;;;;;;;9.15;6.90;;;33.00;36.90;;;;;;5114451;28;20016;-70
2021/06/20 08:40:56;;;;;;;10.10;7.07;;;33.10;36.60;;;;;;5114132;28;20020;-70
2021/06/20 08:43:23;;;;;;;10.65;8.52;;;33.10;36.70;;;;;;5113672;28;20026;-71
2021/06/20 08:45:54;;;;;;;9.38;7.80;;;33.20;35.80;;;;;;5114227;28;20023;-71
2021/06/20 08:48:20;;;;;;;11.98;8.48;;;33.30;36.30;;;;;;5114131;28;20012;-71
2021/06/20 08:50:51;;;;;;;7.95;7.15;;;33.30;35.90;;;;;;5114254;28;20020;-70
2021/06/20 08:53:19;;;;;;;9.77;8.43;;;33.40;35.50;;;;;;5114208;28;20031;-70
2021/06/20 08:55:46;;;;;;;11.15;8.02;;;33.60;35.40;;;;;;5113973;28;20106;-70
2021/06/20 08:58:26;;;;;;;10.73;8.60;;;33.60;35.40;;;;;;5112198;28;20430;-71
2021/06/20 09:00:56;;;;;;;8.27;7.43;;;33.70;35.60;;;;;;5107253;28;20031;-71
2021/06/20 09:03:23;;;;;;;7.63;6.65;;;33.80;35.50;;;;;;5109141;28;20101;-71
2021/06/20 09:05:56;;;;;;;10.25;7.78;;;34.00;35.20;;;;;;5106163;28;20585;-70
2021/06/20 09:08:25;;;;;;;9.80;7.53;;;34.10;34.70;;;;;;5112478;28;20024;-70
2021/06/20 09:10:50;;;;;;;12.55;7.38;;;34.20;34.40;;;;;;5112608;28;20168;-71
2021/06/20 09:13:16;;;;;;;8.65;6.25;;;34.40;34.10;;;;;;5113722;28;20512;-70
2021/06/20 09:15:42;;;;;;;7.07;6.43;;;34.40;33.80;;;;;;5113722;28;20030;-70
2021/06/20 09:18:10;;;;;;;9.48;7.40;;;34.50;33.50;;;;;;5112415;28;20027;-71
2021/06/20 09:20:44;;;;;;;9.65;6.65;;;34.60;33.80;;;;;;5093147;28;20200;-70
2021/06/20 09:23:15;;;;;;;8.50;6.97;;;34.80;33.80;;;;;;5093277;28;20047;-71
2021/06/20 09:25:44;;;;;;;9.05;7.00;;;34.90;33.30;;;;;;5107231;28;20007;-71
2021/06/20 09:28:11;;;;;;;9.65;7.93;;;35.10;33.10;;;;;;5110445;28;20377;-70
2021/06/20 09:30:48;;;;;;;8.82;7.97;;;35.20;32.50;;;;;;5113193;28;20003;-70
2021/06/20 09:33:14;;;;;;;8.30;7.50;;;35.30;32.10;;;;;;5109790;28;20475;-71
2021/06/20 09:35:44;;;;;;;11.10;8.70;;;35.40;31.80;;;;;;5101583;28;20023;-71
2021/06/20 09:38:20;;;;;;;12.20;8.60;;;35.40;31.60;;;;;;5112949;28;20027;-70
2021/06/20 09:40:47;;;;;;;15.90;8.50;;;35.40;31.70;;;;;;5111154;28;20023;-70
2021/06/20 09:43:17;;;;;;;12.73;8.70;;;35.40;31.90;;;;;;5112710;28;20127;-70
2021/06/20 09:45:48;;;;;;;12.35;7.88;;;35.40;32.30;;;;;;5111795;28;20019;-71
2021/06/20 09:48:40;;;;;;;13.20;8.90;;;35.50;32.50;;;;;;5111674;28;20047;-71
2021/06/20 09:51:26;;;;;;;13.15;9.43;;;35.50;33.10;;;;;;5109255;28;20043;-71
2021/06/20 09:53:52;;;;;;;13.93;10.20;;;35.40;33.60;;;;;;5111603;28;20063;-70
2021/06/20 09:56:29;;;;;;;13.77;10.50;;;35.40;33.90;;;;;;5112490;28;20028;-71
2021/06/20 09:59:06;;;;;;;13.20;9.10;;;35.30;34.30;;;;;;5111275;28;20095;-71
2021/06/20 10:01:38;;;;;;;12.77;9.07;;;35.10;34.30;;;;;;5094977;28;20396;-71
2021/06/20 10:04:05;;;;;;;14.65;9.57;;;35.10;34.50;;;;;;5111843;28;20529;-71
2021/06/20 10:06:31;;;;;;;13.75;10.07;;;35.10;34.70;;;;;;5113178;28;20054;-71
2021/06/20 10:08:57;;;;;;;12.98;9.63;;;35.00;34.80;;;;;;5111443;28;20072;-71
2021/06/20 10:11:23;;;;;;;14.27;9.60;;;34.90;34.70;;;;;;5101383;28;20490;-70
2021/06/20 10:13:49;;;;;;;13.52;10.13;;;34.90;34.60;;;;;;5108909;28;20035;-71
2021/06/20 10:16:18;;;;;;;13.20;9.98;;;34.80;34.70;;;;;;5108194;28;20039;-71
2021/06/20 10:19:00;;;;;;;15.57;9.00;;;34.80;34.80;;;;;;5112823;28;20088;-71
2021/06/20 10:21:34;;;;;;;10.23;8.77;;;34.70;34.90;;;;;;5111008;28;20050;-71
2021/06/20 10:24:26;;;;;;;16.20;9.35;;;34.70;35.00;;;;;;5097701;28;20081;-71
2021/06/20 10:26:53;;;;;;;12.85;9.77;;;34.70;35.20;;;;;;5101507;28;20101;-71
2021/06/20 10:29:31;;;;;;;11.20;9.30;;;34.70;35.30;;;;;;5112832;28;20023;-71
2021/06/20 10:31:59;;;;;;;11.60;9.15;;;34.60;35.30;;;;;;5104019;28;20541;-71
2021/06/20 10:34:28;;;;;;;11.75;9.05;;;34.70;35.40;;;;;;5092905;28;20359;-71
2021/06/20 10:37:05;;;;;;;13.18;8.65;;;34.70;35.30;;;;;;5104252;28;20032;-71
2021/06/20 10:39:31;;;;;;;10.13;8.85;;;34.70;35.40;;;;;;5099709;28;20050;-72
2021/06/20 10:42:09;;;;;;;9.57;8.57;;;34.80;35.50;;;;;;5112888;28;20442;-71
2021/06/20 10:44:53;;;;;;;14.40;9.25;;;34.80;35.40;;;;;;5100205;28;20550;-71
2021/06/20 10:47:31;;;;;;;10.30;8.68;;;34.90;35.40;;;;;;5091310;28;20012;-71
2021/06/20 10:50:05;;;;;;;11.85;7.97;;;35.00;35.20;;;;;;5092530;28;20012;-71
2021/06/20 10:52:31;;;;;;;12.82;8.15;;;35.10;35.10;;;;;;5110080;28;20044;-71
2021/06/20 10:55:13;;;;;;;9.82;7.47;;;35.20;34.70;;;;;;5107085;28;20107;-71
2021/06/20 10:57:44;;;;;;;9.65;8.02;;;35.30;33.80;;;;;;5112706;28;20028;-71
2021/06/20 11:00:11;;;;;;;11.10;7.80;;;35.40;33.20;;;;;;5099145;28;20019;-71
2021/06/20 11:02:37;;;;;;;8.80;7.45;;;35.60;33.00;;;;;;5103231;28;20040;-71
2021/06/20 11:05:04;;;;;;;9.60;7.72;;;35.70;32.80;;;;;;5110758;28;20028;-71
2021/06/20 11:07:34;;;;;;;9.82;7.35;;;35.80;32.70;;;;;;5115525;28;20026;-71
2021/06/20 11:10:00;;;;;;;8.23;6.97;;;35.80;32.50;;;;;;5115476;28;20019;-71
2021/06/20 11:12:27;;;;;;;7.40;6.70;;;35.90;32.30;;;;;;5115533;28;20098;-71
2021/06/20 11:14:54;;;;;;;7.70;6.90;;;35.90;31.90;;;;;;5117848;28;20118;-71
2021/06/20 11:17:21;;;;;;;7.45;6.75;;;36.00;32.00;;;;;;5114947;28;20106;-71
2021/06/20 11:19:48;;;;;;;10.50;6.72;;;36.00;31.60;;;;;;5114739;28;20032;-71
2021/06/20 11:22:14;;;;;;;7.75;6.95;;;36.10;31.10;;;;;;5114704;28;20030;-71
2021/06/20 11:24:43;;;;;;;9.20;7.10;;;36.20;31.30;;;;;;5099783;28;20031;-71
2021/06/20 11:27:12;;;;;;;8.13;6.32;;;36.30;31.30;;;;;;5114715;28;20381;-71
2021/06/20 11:29:48;;;;;;;7.07;6.38;;;36.40;31.20;;;;;;5114517;28;20019;-72
2021/06/20 11:32:22;;;;;;;6.93;6.15;;;36.40;31.10;;;;;;5112627;28;20032;-71
2021/06/20 11:34:57;;;;;;;6.88;6.28;;;36.50;31.10;;;;;;5112396;28;20063;-72
2021/06/20 11:37:28;;;;;;;9.57;6.55;;;36.60;31.00;;;;;;5114398;28;20504;-72
2021/06/20 11:40:16;;;;;;;7.20;6.38;;;36.70;30.70;;;;;;5114761;27;20389;-71
2021/06/20 11:42:46;;;;;;;7.93;6.47;;;36.80;30.50;;;;;;5114153;28;20130;-71
2021/06/20 11:45:20;;;;;;;10.07;6.65;;;36.90;30.40;;;;;;5115597;28;20084;-72
2021/06/20 11:47:51;;;;;;;7.32;6.55;;;36.90;30.10;;;;;;5113561;28;20481;-71
2021/06/20 11:50:22;;;;;;;8.45;6.70;;;37.00;30.20;;;;;;5115354;27;20485;-71
2021/06/20 11:52:55;;;;;;;7.68;6.80;;;37.10;29.90;;;;;;5110757;28;20043;-71
2021/06/20 11:55:25;;;;;;;8.38;6.75;;;37.20;29.90;;;;;;5093603;28;20044;-71
2021/06/20 11:57:54;;;;;;;7.53;6.80;;;37.20;29.40;;;;;;5094606;28;20073;-72
2021/06/20 12:00:23;;;;;;;9.85;7.13;;;37.30;29.50;;;;;;5098338;28;20103;-71
2021/06/20 12:03:00;;;;;;;9.45;6.95;;;37.30;29.70;;;;;;5114568;28;20019;-71
2021/06/20 12:05:27;;;;;;;13.32;7.32;;;37.30;30.00;;;;;;5104760;28;20016;-71
2021/06/20 12:07:57;;;;;;;7.82;6.80;;;37.30;30.00;;;;;;5104348;28;20028;-71
2021/06/20 12:10:23;;;;;;;9.85;7.07;;;37.40;29.70;;;;;;5099531;28;20107;-71
2021/06/20 12:13:03;;;;;;;7.95;7.25;;;37.50;30.20;;;;;;5094572;28;20028;-72
2021/06/20 12:15:31;;;;;;;11.73;8.23;;;37.50;30.20;;;;;;5094663;28;20024;-71
2021/06/20 12:17:57;;;;;;;9.88;6.90;;;37.50;30.00;;;;;;5094467;28;20362;-72
2021/06/20 12:20:38;;;;;;;7.25;6.47;;;37.50;30.00;;;;;;5093082;28;20114;-71
2021/06/20 12:23:08;;;;;;;13.60;7.20;;;37.50;30.30;;;;;;5094530;28;20440;-71
2021/06/20 12:25:48;;;;;;;9.82;7.88;;;37.50;30.60;;;;;;5094385;28;20020;-71
2021/06/20 12:28:15;;;;;;;11.18;7.10;;;37.50;30.00;;;;;;5094352;28;20020;-71
2021/06/20 12:30:42;;;;;;;8.88;6.80;;;37.50;30.00;;;;;;5094219;28;20146;-72
2021/06/20 12:33:15;;;;;;;14.15;7.32;;;37.40;29.90;;;;;;5094398;28;20080;-71
2021/06/20 12:35:43;;;;;;;10.18;7.80;;;37.40;30.00;;;;;;5110957;28;20031;-71
2021/06/20 12:38:20;;;;;;;9.25;7.63;;;37.40;30.00;;;;;;5113963;28;20023;-71
2021/06/20 12:40:47;;;;;;;13.13;7.70;;;37.40;30.00;;;;;;5095006;28;20408;-72
2021/06/20 12:43:18;;;;;;;8.20;7.25;;;37.40;29.70;;;;;;5104117;28;20028;-71
2021/06/20 12:45:44;;;;;;;7.40;6.60;;;37.40;30.00;;;;;;5114419;28;20030;-71
2021/06/20 12:48:13;;;;;;;7.40;6.55;;;37.50;30.10;;;;;;5114381;28;20036;-71